createdAt,value
2018-10-03T00:00:02.258Z,99.90
2018-10-03T00:02:31.853Z,99.90
2018-10-03T00:05:01.531Z,99.90
2018-10-03T00:07:31.453Z,99.90
2018-10-03T00:10:01.756Z,99.90
2018-10-03T00:12:31.327Z,99.90
2018-10-03T00:15:00.962Z,99.90
2018-10-03T00:17:30.430Z,99.90
2018-10-03T00:19:59.980Z,99.90
2018-10-03T00:22:29.605Z,99.90
2018-10-03T00:24:59.264Z,99.90
2018-10-03T00:27:28.821Z,99.90
2018-10-03T00:29:58.657Z,99.90
2018-10-03T00:32:28.517Z,99.90
2018-10-03T00:34:58.153Z,99.90
2018-10-03T00:37:27.899Z,99.90
2018-10-03T00:39:57.648Z,99.90
2018-10-03T00:42:27.186Z,99.90
2018-10-03T00:44:58.611Z,99.90
2018-10-03T00:47:28.511Z,99.90
2018-10-03T00:49:58.525Z,99.90
2018-10-03T00:52:28.442Z,99.90
2018-10-03T00:54:58.227Z,99.90
2018-10-03T00:57:28.490Z,99.90
2018-10-03T00:59:58.216Z,99.90
2018-10-03T01:02:27.840Z,99.90
2018-10-03T01:04:57.478Z,99.90
2018-10-03T01:07:27.214Z,99.90
2018-10-03T01:09:57.049Z,99.90
2018-10-03T01:12:26.540Z,99.90
2018-10-03T01:14:56.671Z,99.90
2018-10-03T01:17:26.341Z,99.90
2018-10-03T01:19:56.067Z,99.90
2018-10-03T01:22:25.674Z,99.90
2018-10-03T01:24:55.246Z,99.90
2018-10-03T01:27:25.051Z,99.90
2018-10-03T01:29:54.626Z,99.90
2018-10-03T01:32:24.132Z,99.90
2018-10-03T01:34:53.759Z,99.90
2018-10-03T01:37:23.245Z,99.90
2018-10-03T01:39:52.858Z,99.90
2018-10-03T01:42:22.482Z,99.90
2018-10-03T01:44:51.932Z,99.90
2018-10-03T01:47:21.508Z,99.90
2018-10-03T01:49:51.057Z,99.90
2018-10-03T01:52:20.760Z,99.90
2018-10-03T01:54:50.333Z,99.90
2018-10-03T01:57:20.096Z,99.90
2018-10-03T01:59:49.570Z,99.90
2018-10-03T02:02:19.169Z,99.90
2018-10-03T02:04:48.708Z,99.90
2018-10-03T02:07:18.666Z,99.90
2018-10-03T02:09:48.261Z,99.90
2018-10-03T02:12:17.862Z,99.90
2018-10-03T02:14:47.435Z,99.90
2018-10-03T02:17:17.198Z,99.90
2018-10-03T02:19:47.456Z,99.90
2018-10-03T02:22:16.977Z,99.90
2018-10-03T02:24:46.511Z,99.90
2018-10-03T02:27:16.246Z,99.90
2018-10-03T02:29:46.183Z,99.90
2018-10-03T02:32:15.748Z,99.90
2018-10-03T02:34:45.178Z,99.90
2018-10-03T02:37:15.009Z,99.90
2018-10-03T02:39:44.595Z,99.90
2018-10-03T02:42:14.419Z,99.90
2018-10-03T02:44:43.961Z,99.90
2018-10-03T02:47:13.624Z,99.90
2018-10-03T02:49:43.113Z,99.90
2018-10-03T02:52:12.709Z,99.90
2018-10-03T02:54:42.542Z,99.90
2018-10-03T02:57:12.006Z,99.90
2018-10-03T02:59:41.628Z,99.90
2018-10-03T03:02:11.129Z,99.90
2018-10-03T03:04:40.736Z,99.90
2018-10-03T03:07:10.398Z,99.90
2018-10-03T03:09:40.294Z,99.90
2018-10-03T03:12:09.867Z,99.90
2018-10-03T03:14:39.561Z,99.90
2018-10-03T03:17:09.106Z,99.90
2018-10-03T03:19:38.633Z,99.90
2018-10-03T03:22:08.260Z,99.90
2018-10-03T03:24:37.942Z,99.90
2018-10-03T03:27:07.827Z,99.90
2018-10-03T03:29:37.427Z,99.90
2018-10-03T03:32:06.911Z,99.90
2018-10-03T03:34:36.621Z,99.90
2018-10-03T03:37:05.893Z,99.90
2018-10-03T03:39:35.397Z,99.90
2018-10-03T03:42:04.974Z,99.90
2018-10-03T03:44:34.574Z,99.90
2018-10-03T03:47:04.070Z,99.90
2018-10-03T03:49:33.509Z,99.90
2018-10-03T03:52:03.027Z,99.90
2018-10-03T03:54:32.496Z,99.90
2018-10-03T03:57:02.029Z,99.90
2018-10-03T03:59:31.648Z,99.90
2018-10-03T04:02:01.283Z,99.90
2018-10-03T04:04:30.725Z,99.90
2018-10-03T04:07:00.389Z,99.90
2018-10-03T04:09:30.014Z,99.90
2018-10-03T04:12:02.469Z,99.90
2018-10-03T04:14:31.905Z,99.90
2018-10-03T04:17:02.313Z,99.90
2018-10-03T04:19:31.911Z,99.90
2018-10-03T04:22:01.898Z,99.90
2018-10-03T04:24:31.638Z,99.90
2018-10-03T04:27:01.199Z,99.90
2018-10-03T04:29:30.841Z,99.90
2018-10-03T04:32:00.401Z,99.90
2018-10-03T04:34:29.928Z,99.90
2018-10-03T04:36:59.557Z,99.90
2018-10-03T04:39:29.458Z,99.90
2018-10-03T04:41:59.082Z,99.90
2018-10-03T04:44:28.676Z,99.90
2018-10-03T04:46:58.243Z,99.90
2018-10-03T04:49:27.999Z,99.90
2018-10-03T04:51:57.579Z,99.90
2018-10-03T04:54:27.508Z,99.90
2018-10-03T04:56:57.358Z,99.90
2018-10-03T04:59:27.000Z,99.90
2018-10-03T05:01:56.660Z,99.90
2018-10-03T05:04:26.411Z,99.90
2018-10-03T05:06:56.188Z,99.90
2018-10-03T05:09:25.688Z,99.90
2018-10-03T05:11:55.419Z,99.90
2018-10-03T05:14:25.132Z,99.90
2018-10-03T05:16:54.541Z,99.90
2018-10-03T05:19:24.231Z,99.90
2018-10-03T05:21:53.705Z,99.90
2018-10-03T05:24:23.318Z,99.90
2018-10-03T05:26:52.869Z,99.90
2018-10-03T05:29:22.680Z,99.90
2018-10-03T05:31:52.209Z,99.90
2018-10-03T05:34:21.817Z,99.90
2018-10-03T05:36:51.343Z,99.90
2018-10-03T05:39:21.358Z,99.90
2018-10-03T05:41:50.977Z,99.90
2018-10-03T05:44:20.603Z,99.90
2018-10-03T05:46:50.212Z,99.90
2018-10-03T05:49:19.875Z,99.90
2018-10-03T05:51:49.332Z,99.90
2018-10-03T05:54:18.998Z,99.90
2018-10-03T05:56:48.908Z,99.90
2018-10-03T05:59:18.569Z,99.90
2018-10-03T06:01:48.832Z,99.90
2018-10-03T06:04:18.530Z,99.90
2018-10-03T06:06:48.278Z,99.90
2018-10-03T06:09:17.943Z,99.90
2018-10-03T06:11:47.667Z,99.90
2018-10-03T06:14:17.273Z,99.90
2018-10-03T06:16:47.238Z,99.90
2018-10-03T06:19:17.027Z,99.90
2018-10-03T06:21:47.113Z,99.90
2018-10-03T06:24:16.872Z,99.90
2018-10-03T06:26:46.655Z,99.90
2018-10-03T06:29:16.668Z,99.90
2018-10-03T06:31:46.345Z,99.90
2018-10-03T06:34:15.915Z,99.90
2018-10-03T06:36:45.448Z,99.90
2018-10-03T06:39:15.088Z,99.90
2018-10-03T06:41:45.227Z,99.90
2018-10-03T06:44:14.880Z,99.90
2018-10-03T06:46:44.567Z,99.90
2018-10-03T06:49:13.910Z,99.90
2018-10-03T06:51:43.145Z,99.90
2018-10-03T06:54:13.789Z,99.90
2018-10-03T06:56:43.465Z,99.90
2018-10-03T06:59:12.993Z,99.90
2018-10-03T07:01:42.702Z,99.90
2018-10-03T07:04:12.398Z,99.90
2018-10-03T07:06:42.296Z,99.90
2018-10-03T07:09:12.041Z,99.90
2018-10-03T07:11:41.681Z,99.90
2018-10-03T07:14:12.203Z,99.90
2018-10-03T07:16:41.953Z,99.90
2018-10-03T07:19:11.732Z,99.90
2018-10-03T07:21:41.512Z,99.90
2018-10-03T07:24:11.233Z,99.90
2018-10-03T07:26:40.860Z,99.90
2018-10-03T07:29:10.635Z,99.90
2018-10-03T07:31:40.282Z,99.90
2018-10-03T07:34:09.759Z,99.90
2018-10-03T07:36:39.208Z,99.90
2018-10-03T07:39:09.823Z,99.90
2018-10-03T07:41:39.385Z,99.90
2018-10-03T07:44:09.201Z,99.90
2018-10-03T07:46:38.706Z,99.90
2018-10-03T07:49:08.323Z,99.90
2018-10-03T07:51:37.879Z,99.90
2018-10-03T07:54:07.285Z,99.90
2018-10-03T07:56:36.523Z,99.90
2018-10-03T07:59:06.387Z,99.90
2018-10-03T08:01:35.709Z,99.90
2018-10-03T08:04:05.426Z,99.90
2018-10-03T08:06:34.773Z,99.90
2018-10-03T08:09:05.526Z,99.90
2018-10-03T08:11:35.137Z,99.90
2018-10-03T08:14:04.682Z,99.90
2018-10-03T08:16:34.290Z,99.90
2018-10-03T08:19:03.779Z,99.90
2018-10-03T08:21:33.652Z,99.90
2018-10-03T08:24:03.608Z,99.90
2018-10-03T08:26:33.134Z,99.90
2018-10-03T08:29:03.036Z,99.90
2018-10-03T08:31:33.248Z,99.90
2018-10-03T08:34:03.585Z,99.90
2018-10-03T08:36:33.372Z,99.90
2018-10-03T08:39:02.967Z,99.90
2018-10-03T08:41:32.498Z,99.90
2018-10-03T08:44:02.165Z,99.90
2018-10-03T08:46:32.139Z,99.90
2018-10-03T08:49:02.318Z,99.90
2018-10-03T08:51:31.883Z,99.90
2018-10-03T08:54:01.649Z,99.90
2018-10-03T08:56:31.288Z,99.90
2018-10-03T08:59:01.476Z,99.90
2018-10-03T09:01:44.119Z,99.90
2018-10-03T09:04:21.456Z,99.90
2018-10-03T09:06:51.425Z,99.90
2018-10-03T09:09:20.963Z,99.90
2018-10-03T09:11:50.600Z,99.90
2018-10-03T09:14:20.589Z,99.90
2018-10-03T09:16:50.207Z,99.90
2018-10-03T09:19:19.731Z,99.90
2018-10-03T09:21:49.729Z,99.90
2018-10-03T09:24:19.374Z,99.90
2018-10-03T09:26:49.111Z,99.90
2018-10-03T09:29:18.694Z,99.90
2018-10-03T09:31:48.502Z,99.90
2018-10-03T09:34:17.896Z,99.90
2018-10-03T09:36:49.136Z,99.90
2018-10-03T09:39:19.492Z,99.90
2018-10-03T09:41:49.364Z,99.90
2018-10-03T09:44:19.086Z,99.90
2018-10-03T09:46:48.669Z,99.90
2018-10-03T09:49:18.248Z,99.90
2018-10-03T09:51:47.823Z,99.90
2018-10-03T09:54:17.431Z,99.90
2018-10-03T09:56:47.076Z,99.90
2018-10-03T09:59:17.198Z,99.90
2018-10-03T10:01:46.904Z,99.90
2018-10-03T10:04:16.768Z,99.90
2018-10-03T10:06:46.641Z,99.90
2018-10-03T10:09:16.698Z,99.90
2018-10-03T10:11:47.375Z,99.90
2018-10-03T10:14:17.768Z,99.90
2018-10-03T10:16:47.662Z,99.90
2018-10-03T10:19:17.315Z,99.90
2018-10-03T10:21:47.029Z,99.90
2018-10-03T10:24:17.460Z,99.90
2018-10-03T10:26:47.433Z,99.90
2018-10-03T10:29:17.340Z,99.90
2018-10-03T10:31:47.305Z,99.90
2018-10-03T10:34:17.467Z,99.90
2018-10-03T10:36:47.197Z,99.90
2018-10-03T10:39:16.870Z,99.90
2018-10-03T10:41:46.593Z,99.90
2018-10-03T10:44:16.762Z,99.90
2018-10-03T10:46:46.649Z,99.90
2018-10-03T10:49:16.490Z,99.90
2018-10-03T10:51:46.206Z,99.90
2018-10-03T10:54:16.568Z,99.90
2018-10-03T10:56:46.568Z,99.90
2018-10-03T10:59:16.407Z,99.90
2018-10-03T11:01:46.323Z,99.90
2018-10-03T11:04:16.902Z,99.90
2018-10-03T11:06:47.217Z,99.90
2018-10-03T11:09:17.061Z,99.90
2018-10-03T11:11:46.920Z,99.90
2018-10-03T11:14:16.665Z,99.90
2018-10-03T11:16:46.715Z,99.90
2018-10-03T11:19:16.815Z,99.90
2018-10-03T11:21:46.989Z,99.90
2018-10-03T11:24:18.332Z,99.90
2018-10-03T11:26:47.984Z,99.90
2018-10-03T11:29:17.483Z,99.90
2018-10-03T11:31:47.234Z,99.90
2018-10-03T11:34:16.872Z,99.90
2018-10-03T11:36:46.670Z,99.90
2018-10-03T11:39:16.460Z,99.90
2018-10-03T11:41:46.206Z,99.90
2018-10-03T11:44:16.272Z,99.90
2018-10-03T11:46:46.914Z,99.90
2018-10-03T11:49:16.667Z,99.90
2018-10-03T11:51:46.578Z,99.90
2018-10-03T11:54:16.482Z,99.90
2018-10-03T11:56:46.276Z,99.90
2018-10-03T11:59:15.781Z,99.90
2018-10-03T12:01:45.283Z,99.90
2018-10-03T12:04:14.777Z,99.90
2018-10-03T12:06:44.225Z,99.90
2018-10-03T12:09:14.699Z,99.90
2018-10-03T12:11:44.319Z,99.90
2018-10-03T12:14:15.490Z,99.90
2018-10-03T12:16:45.158Z,99.90
2018-10-03T12:19:14.971Z,99.90
2018-10-03T12:21:44.951Z,99.90
2018-10-03T12:24:14.790Z,99.90
2018-10-03T12:26:44.882Z,99.90
2018-10-03T12:29:16.880Z,99.90
2018-10-03T12:31:47.096Z,99.90
2018-10-03T12:34:16.906Z,99.20
2018-10-03T12:36:46.866Z,99.90
2018-10-03T12:39:16.798Z,99.90
2018-10-03T12:41:46.652Z,99.90
2018-10-03T12:44:17.068Z,99.90
2018-10-03T12:46:47.059Z,99.90
2018-10-03T12:49:16.975Z,99.90
2018-10-03T12:51:46.752Z,99.90
2018-10-03T12:54:16.376Z,99.90
2018-10-03T12:56:46.108Z,99.90
2018-10-03T12:59:15.863Z,99.90
2018-10-03T13:01:45.716Z,99.90
2018-10-03T13:04:15.166Z,99.90
2018-10-03T13:06:44.733Z,99.90
2018-10-03T13:09:15.235Z,99.90
2018-10-03T13:11:44.979Z,99.90
2018-10-03T13:14:15.788Z,99.70
2018-10-03T13:16:45.211Z,99.90
2018-10-03T13:19:15.072Z,99.40
2018-10-03T13:21:45.110Z,99.20
2018-10-03T13:24:14.935Z,99.50
2018-10-03T13:26:44.698Z,99.60
2018-10-03T13:29:14.330Z,99.90
2018-10-03T13:31:44.488Z,99.90
2018-10-03T13:34:14.245Z,99.90
2018-10-03T13:36:43.991Z,99.80
2018-10-03T13:39:13.776Z,99.90
2018-10-03T13:41:43.395Z,99.50
2018-10-03T13:44:13.445Z,99.90
2018-10-03T13:46:43.716Z,99.90
2018-10-03T13:49:15.176Z,99.90
2018-10-03T13:51:45.466Z,99.90
2018-10-03T13:54:15.192Z,99.90
2018-10-03T13:56:45.114Z,99.90
2018-10-03T13:59:15.232Z,99.90
2018-10-03T14:01:45.474Z,99.90
2018-10-03T14:04:15.256Z,99.90
2018-10-03T14:06:48.113Z,99.90
2018-10-03T14:09:17.662Z,99.00
2018-10-03T14:11:47.364Z,98.80
2018-10-03T14:14:17.037Z,98.40
2018-10-03T14:16:48.631Z,98.60
2018-10-03T14:19:18.440Z,99.20
2018-10-03T14:21:48.255Z,98.90
2018-10-03T14:24:18.258Z,98.90
2018-10-03T14:26:48.144Z,98.80
2018-10-03T14:29:18.087Z,99.40
2018-10-03T14:31:48.390Z,97.80
2018-10-03T14:34:18.684Z,98.30
2018-10-03T14:36:48.744Z,96.60
2018-10-03T14:39:18.671Z,96.70
2018-10-03T14:41:48.465Z,97.00
2018-10-03T14:44:18.392Z,97.30
2018-10-03T14:46:48.509Z,98.20
2018-10-03T14:49:18.309Z,98.80
2018-10-03T14:51:48.117Z,99.40
2018-10-03T14:54:17.778Z,99.90
2018-10-03T14:56:47.655Z,99.20
2018-10-03T14:59:17.391Z,99.70
2018-10-03T15:01:47.466Z,99.90
2018-10-03T15:04:18.182Z,99.90
2018-10-03T15:06:48.266Z,99.90
2018-10-03T15:09:17.955Z,99.90
2018-10-03T15:11:48.894Z,99.60
2018-10-03T15:14:19.108Z,99.80
2018-10-03T15:16:48.958Z,99.40
2018-10-03T15:19:18.745Z,99.50
2018-10-03T15:21:48.293Z,99.90
2018-10-03T15:24:18.006Z,99.90
2018-10-03T15:26:47.591Z,99.90
2018-10-03T15:29:17.253Z,99.90
2018-10-03T15:31:46.759Z,99.90
2018-10-03T15:34:16.371Z,99.90
2018-10-03T15:36:46.038Z,99.90
2018-10-03T15:39:16.095Z,99.90
2018-10-03T15:41:46.952Z,99.90
2018-10-03T15:44:16.751Z,99.90
2018-10-03T15:46:46.750Z,99.90
2018-10-03T15:49:17.521Z,99.90
2018-10-03T15:51:47.645Z,99.90
2018-10-03T15:54:17.832Z,99.90
2018-10-03T15:56:48.081Z,99.90
2018-10-03T15:59:18.183Z,99.90
2018-10-03T16:01:48.316Z,99.90
2018-10-03T16:04:18.476Z,99.90
2018-10-03T16:06:48.200Z,99.90
2018-10-03T16:09:18.416Z,99.90
2018-10-03T16:11:48.089Z,99.90
2018-10-03T16:14:17.977Z,99.90
2018-10-03T16:16:49.088Z,99.90
2018-10-03T16:19:18.857Z,99.90
2018-10-03T16:21:50.178Z,99.90
2018-10-03T16:24:19.988Z,99.90
2018-10-03T16:26:49.903Z,99.90
2018-10-03T16:29:19.409Z,99.90
2018-10-03T16:31:49.137Z,99.90
2018-10-03T16:34:18.746Z,99.90
2018-10-03T16:36:48.548Z,99.90
2018-10-03T16:39:18.132Z,99.90
2018-10-03T16:41:47.849Z,99.90
2018-10-03T16:44:17.716Z,99.90
2018-10-03T16:46:47.389Z,99.90
2018-10-03T16:49:17.723Z,99.90
2018-10-03T16:51:47.352Z,99.90
2018-10-03T16:54:18.111Z,99.90
2018-10-03T16:56:47.864Z,99.90
2018-10-03T16:59:17.893Z,99.90
2018-10-03T17:01:47.473Z,99.90
2018-10-03T17:04:24.535Z,99.90
2018-10-03T17:06:54.291Z,99.90
2018-10-03T17:09:23.806Z,99.90
2018-10-03T17:11:54.006Z,99.90
2018-10-03T17:14:40.386Z,99.90
2018-10-03T17:17:10.879Z,99.90
2018-10-03T17:19:40.829Z,99.90
2018-10-03T17:22:10.530Z,99.90
2018-10-03T17:24:40.452Z,99.90
2018-10-03T17:27:10.086Z,99.90
2018-10-03T17:29:40.143Z,99.90
2018-10-03T17:32:09.874Z,99.90
2018-10-03T17:34:39.413Z,99.90
2018-10-03T17:37:09.536Z,99.90
2018-10-03T17:39:39.188Z,99.90
2018-10-03T17:42:09.110Z,99.90
2018-10-03T17:44:39.077Z,99.90
2018-10-03T17:47:08.576Z,99.90
2018-10-03T17:49:38.147Z,99.90
2018-10-03T17:52:08.017Z,99.90
2018-10-03T17:54:37.705Z,99.90
2018-10-03T17:57:07.581Z,99.90
2018-10-03T17:59:37.279Z,99.90
2018-10-03T18:02:09.131Z,99.90
2018-10-03T18:04:39.293Z,99.90
2018-10-03T18:07:09.633Z,99.90
2018-10-03T18:09:39.177Z,99.90
2018-10-03T18:12:08.816Z,99.90
2018-10-03T18:14:38.640Z,99.90
2018-10-03T18:17:08.279Z,99.90
2018-10-03T18:19:38.371Z,99.90
2018-10-03T18:22:08.248Z,99.90
2018-10-03T18:24:38.178Z,99.90
2018-10-03T18:27:08.524Z,99.90
2018-10-03T18:29:38.254Z,99.90
2018-10-03T18:32:08.401Z,99.90
2018-10-03T18:34:38.036Z,99.90
2018-10-03T18:37:07.571Z,99.90
2018-10-03T18:39:37.938Z,99.90
2018-10-03T18:42:07.797Z,99.90
2018-10-03T18:44:37.610Z,99.90
2018-10-03T18:47:08.766Z,99.90
2018-10-03T18:49:38.707Z,99.90
2018-10-03T18:52:08.800Z,99.90
2018-10-03T18:54:38.233Z,99.90
2018-10-03T18:57:07.936Z,99.90
2018-10-03T18:59:37.650Z,99.90
2018-10-03T19:02:07.764Z,99.90
2018-10-03T19:04:37.686Z,99.90
2018-10-03T19:07:07.430Z,99.90
2018-10-03T19:09:37.178Z,99.90
2018-10-03T19:12:07.824Z,99.90
2018-10-03T19:14:38.256Z,99.90
2018-10-03T19:17:07.884Z,99.90
2018-10-03T19:19:37.192Z,99.90
2018-10-03T19:22:07.130Z,99.90
2018-10-03T19:24:36.796Z,99.90
2018-10-03T19:27:06.616Z,99.90
2018-10-03T19:29:36.420Z,99.90
2018-10-03T19:32:05.933Z,99.90
2018-10-03T19:34:35.441Z,99.90
2018-10-03T19:37:05.057Z,99.90
2018-10-03T19:39:35.071Z,99.90
2018-10-03T19:42:05.363Z,99.90
2018-10-03T19:44:34.969Z,99.90
2018-10-03T19:47:06.066Z,99.90
2018-10-03T19:49:35.527Z,99.90
2018-10-03T19:52:05.187Z,99.90
2018-10-03T19:54:34.781Z,99.90
2018-10-03T19:57:05.244Z,99.90
2018-10-03T19:59:34.913Z,99.90
2018-10-03T20:02:04.754Z,99.90
2018-10-03T20:04:34.552Z,99.90
2018-10-03T20:07:04.001Z,99.90
2018-10-03T20:09:33.868Z,99.90
2018-10-03T20:12:03.723Z,99.90
2018-10-03T20:14:33.557Z,99.90
2018-10-03T20:17:03.030Z,99.90
2018-10-03T20:19:32.877Z,99.90
2018-10-03T20:22:03.076Z,99.90
2018-10-03T20:24:33.781Z,99.90
2018-10-03T20:27:03.373Z,99.90
2018-10-03T20:29:32.871Z,99.90
2018-10-03T20:32:02.499Z,99.90
2018-10-03T20:34:31.912Z,99.90
2018-10-03T20:37:01.507Z,99.90
2018-10-03T20:39:31.352Z,99.90
2018-10-03T20:42:00.907Z,99.90
2018-10-03T20:44:30.443Z,99.90
2018-10-03T20:47:00.010Z,99.90
2018-10-03T20:49:29.488Z,99.90
2018-10-03T20:52:00.242Z,99.90
2018-10-03T20:54:30.045Z,99.90
2018-10-03T20:57:00.081Z,99.90
2018-10-03T20:59:29.681Z,99.90
2018-10-03T21:01:59.207Z,99.90
2018-10-03T21:04:28.845Z,99.90
2018-10-03T21:06:58.389Z,99.90
2018-10-03T21:09:27.984Z,99.90
2018-10-03T21:11:57.533Z,99.90
2018-10-03T21:14:26.931Z,99.90
2018-10-03T21:16:56.509Z,99.90
2018-10-03T21:19:26.190Z,99.90
2018-10-03T21:21:55.873Z,99.90
2018-10-03T21:24:25.383Z,99.90
2018-10-03T21:26:54.968Z,99.90
2018-10-03T21:29:24.621Z,99.90
2018-10-03T21:31:54.213Z,99.90
2018-10-03T21:34:23.915Z,99.90
2018-10-03T21:36:53.657Z,99.90
2018-10-03T21:39:23.319Z,99.90
2018-10-03T21:41:52.918Z,99.90
2018-10-03T21:44:22.571Z,99.90
2018-10-03T21:46:52.365Z,99.90
2018-10-03T21:49:22.543Z,99.90
2018-10-03T21:51:52.408Z,99.90
2018-10-03T21:54:22.663Z,99.90
2018-10-03T21:56:52.417Z,99.90
2018-10-03T21:59:22.164Z,99.90
2018-10-03T22:01:51.926Z,99.90
2018-10-03T22:04:21.760Z,99.90
2018-10-03T22:06:51.757Z,99.90
2018-10-03T22:09:21.565Z,99.90
2018-10-03T22:11:51.068Z,99.90
2018-10-03T22:14:20.984Z,99.90
2018-10-03T22:16:50.856Z,99.90
2018-10-03T22:19:20.183Z,99.90
2018-10-03T22:21:49.439Z,99.90
2018-10-03T22:24:18.775Z,99.90
2018-10-03T22:26:48.176Z,99.90
2018-10-03T22:29:17.784Z,99.90
2018-10-03T22:31:47.320Z,99.90
2018-10-03T22:34:17.203Z,99.90
2018-10-03T22:36:46.655Z,99.90
2018-10-03T22:39:16.571Z,99.90
2018-10-03T22:41:46.261Z,99.90
2018-10-03T22:44:15.864Z,99.90
2018-10-03T22:46:45.414Z,99.90
2018-10-03T22:49:14.885Z,99.90
2018-10-03T22:51:44.502Z,99.90
2018-10-03T22:54:14.229Z,99.90
2018-10-03T22:56:43.785Z,99.90
2018-10-03T22:59:13.426Z,99.90
2018-10-03T23:01:43.351Z,99.90
2018-10-03T23:04:12.952Z,99.90
2018-10-03T23:06:42.673Z,99.90
2018-10-03T23:09:12.543Z,99.90
2018-10-03T23:11:42.330Z,99.90
2018-10-03T23:14:12.124Z,99.90
2018-10-03T23:16:42.155Z,99.90
2018-10-03T23:19:11.822Z,99.90
2018-10-03T23:21:41.559Z,99.90
2018-10-03T23:24:11.098Z,99.90
2018-10-03T23:26:40.763Z,99.90
2018-10-03T23:29:10.489Z,99.90
2018-10-03T23:31:40.002Z,99.90
2018-10-03T23:34:09.610Z,99.90
2018-10-03T23:36:40.182Z,99.90
2018-10-03T23:39:11.938Z,99.90
2018-10-03T23:41:41.683Z,99.90
2018-10-03T23:44:11.546Z,99.90
2018-10-03T23:46:41.071Z,99.90
2018-10-03T23:49:10.704Z,99.90
2018-10-03T23:51:40.419Z,99.90
2018-10-03T23:54:10.189Z,99.90
2018-10-03T23:56:39.784Z,99.90
2018-10-03T23:59:09.420Z,99.90
